Portada
METAR-TAF:

METAR-TAF

Aeropuertos :

Morrisville-Stowe State Airport

Morrisville, Vermont, Estados Unidos

latitud: 44-32-10N, longitud: 072-36-58W, altitud: 223 m

Observación

El informe se hizo hace 55 minutos, a las 09:54 UTC
Viento calma
Temperatura -2°C
Humedad 80%
Presión 1020 hPa
Visibilidad: 16.1 km
Nubes dispersas a una altura de 8000 ft
Cielo cubierto a una altura de 9000 ft

METAR: KMVL 210954Z AUTO 00000KT 10SM SCT080 OVC090 M02/M05 A3013 RMK AO2 SLP210 T10171050

Hora: 06:49 (10:49 UTC)


TAF: falta

Observaciones y pronósticos meteorológicos de más de 4000 aeropuertos (mensajes METAR y TAF).

Los puntos amarillos y rojos representan las estaciones disponibles.

Ponga el ratón en el punto deseado para ver el nombre de la estación.

Haga clic para ver las observaciones y los pronósticos meteorológicos.

Para cambiar el mapa : haga clic en los botones verdes con una cruz de color negro para hacer un zoom, en el botón verde con un guión para alejar o en las flechas verdes para mapas adyacentes.


METAR-TAF: